sensor_id;sensor_type;location;lat;lon;timestamp;P1;durP1;ratioP1;P2;durP2;ratioP2
2299;SDS011;1158;48.750;9.078;2023-04-15T00:00:36;5.77;;;3.03;;
2299;SDS011;1158;48.750;9.078;2023-04-15T00:03:03;6.10;;;3.13;;
2299;SDS011;1158;48.750;9.078;2023-04-15T00:05:30;8.23;;;3.53;;
2299;SDS011;1158;48.750;9.078;2023-04-15T00:07:57;5.63;;;2.97;;
2299;SDS011;1158;48.750;9.078;2023-04-15T00:10:26;13.00;;;3.70;;
2299;SDS011;1158;48.750;9.078;2023-04-15T00:12:53;5.80;;;3.40;;
2299;SDS011;1158;48.750;9.078;2023-04-15T00:15:20;11.57;;;3.63;;
2299;SDS011;1158;48.750;9.078;2023-04-15T00:17:48;5.37;;;3.13;;
2299;SDS011;1158;48.750;9.078;2023-04-15T00:20:15;9.40;;;3.23;;
2299;SDS011;1158;48.750;9.078;2023-04-15T00:22:42;5.27;;;3.13;;
2299;SDS011;1158;48.750;9.078;2023-04-15T00:25:09;6.17;;;3.10;;
2299;SDS011;1158;48.750;9.078;2023-04-15T00:27:37;8.57;;;3.10;;
2299;SDS011;1158;48.750;9.078;2023-04-15T00:30:05;5.00;;;2.53;;
2299;SDS011;1158;48.750;9.078;2023-04-15T00:32:32;7.07;;;3.23;;
2299;SDS011;1158;48.750;9.078;2023-04-15T00:34:59;5.10;;;3.07;;
2299;SDS011;1158;48.750;9.078;2023-04-15T00:37:26;8.80;;;2.77;;
2299;SDS011;1158;48.750;9.078;2023-04-15T00:39:53;8.77;;;3.80;;
2299;SDS011;1158;48.750;9.078;2023-04-15T00:42:19;5.63;;;3.03;;
2299;SDS011;1158;48.750;9.078;2023-04-15T00:44:48;5.70;;;3.80;;
2299;SDS011;1158;48.750;9.078;2023-04-15T00:47:14;4.60;;;3.60;;
2299;SDS011;1158;48.750;9.078;2023-04-15T00:49:42;6.20;;;2.90;;
2299;SDS011;1158;48.750;9.078;2023-04-15T00:52:09;8.07;;;3.57;;
2299;SDS011;1158;48.750;9.078;2023-04-15T00:54:35;8.70;;;3.70;;
2299;SDS011;1158;48.750;9.078;2023-04-15T00:57:04;5.73;;;3.57;;
2299;SDS011;1158;48.750;9.078;2023-04-15T00:59:31;7.80;;;3.00;;
2299;SDS011;1158;48.750;9.078;2023-04-15T01:02:00;7.27;;;3.00;;
2299;SDS011;1158;48.750;9.078;2023-04-15T01:04:27;8.93;;;3.87;;
2299;SDS011;1158;48.750;9.078;2023-04-15T01:06:54;10.60;;;3.63;;
2299;SDS011;1158;48.750;9.078;2023-04-15T01:09:21;4.93;;;3.07;;
2299;SDS011;1158;48.750;9.078;2023-04-15T01:11:48;10.60;;;3.60;;
2299;SDS011;1158;48.750;9.078;2023-04-15T01:14:15;5.30;;;3.20;;
2299;SDS011;1158;48.750;9.078;2023-04-15T01:16:42;10.63;;;3.40;;
2299;SDS011;1158;48.750;9.078;2023-04-15T01:19:11;7.80;;;3.53;;
2299;SDS011;1158;48.750;9.078;2023-04-15T01:21:41;6.63;;;3.10;;
2299;SDS011;1158;48.750;9.078;2023-04-15T01:24:08;9.93;;;3.40;;
2299;SDS011;1158;48.750;9.078;2023-04-15T01:26:37;5.70;;;2.70;;
2299;SDS011;1158;48.750;9.078;2023-04-15T01:29:04;7.77;;;4.40;;
2299;SDS011;1158;48.750;9.078;2023-04-15T01:31:32;7.30;;;3.30;;
2299;SDS011;1158;48.750;9.078;2023-04-15T01:34:00;12.00;;;3.40;;
2299;SDS011;1158;48.750;9.078;2023-04-15T01:36:27;5.03;;;3.87;;
2299;SDS011;1158;48.750;9.078;2023-04-15T01:38:54;9.50;;;3.80;;
2299;SDS011;1158;48.750;9.078;2023-04-15T01:41:23;8.07;;;3.90;;
2299;SDS011;1158;48.750;9.078;2023-04-15T01:43:52;6.07;;;3.73;;
2299;SDS011;1158;48.750;9.078;2023-04-15T01:46:18;7.30;;;3.30;;
2299;SDS011;1158;48.750;9.078;2023-04-15T01:48:45;8.83;;;3.77;;
2299;SDS011;1158;48.750;9.078;2023-04-15T01:51:12;4.90;;;3.53;;
2299;SDS011;1158;48.750;9.078;2023-04-15T01:53:38;8.00;;;3.17;;
2299;SDS011;1158;48.750;9.078;2023-04-15T01:56:05;5.40;;;3.83;;
2299;SDS011;1158;48.750;9.078;2023-04-15T01:58:33;7.37;;;3.70;;
2299;SDS011;1158;48.750;9.078;2023-04-15T02:01:01;10.40;;;3.60;;
2299;SDS011;1158;48.750;9.078;2023-04-15T02:03:28;6.47;;;3.47;;
2299;SDS011;1158;48.750;9.078;2023-04-15T02:05:54;8.60;;;3.80;;
2299;SDS011;1158;48.750;9.078;2023-04-15T02:08:21;5.83;;;3.90;;
2299;SDS011;1158;48.750;9.078;2023-04-15T02:10:48;9.80;;;3.47;;
2299;SDS011;1158;48.750;9.078;2023-04-15T02:13:15;7.47;;;3.50;;
2299;SDS011;1158;48.750;9.078;2023-04-15T02:15:45;6.70;;;3.70;;
2299;SDS011;1158;48.750;9.078;2023-04-15T02:18:14;8.87;;;3.70;;
2299;SDS011;1158;48.750;9.078;2023-04-15T02:20:40;7.57;;;3.80;;
2299;SDS011;1158;48.750;9.078;2023-04-15T02:23:08;8.13;;;4.00;;
2299;SDS011;1158;48.750;9.078;2023-04-15T02:25:35;8.43;;;4.47;;
2299;SDS011;1158;48.750;9.078;2023-04-15T02:28:03;7.80;;;4.10;;
2299;SDS011;1158;48.750;9.078;2023-04-15T02:30:30;7.67;;;4.37;;
2299;SDS011;1158;48.750;9.078;2023-04-15T02:32:57;9.60;;;5.00;;
2299;SDS011;1158;48.750;9.078;2023-04-15T02:35:25;5.00;;;3.23;;
2299;SDS011;1158;48.750;9.078;2023-04-15T02:37:52;8.43;;;5.03;;
2299;SDS011;1158;48.750;9.078;2023-04-15T02:40:19;7.63;;;3.57;;
2299;SDS011;1158;48.750;9.078;2023-04-15T02:42:45;6.50;;;3.73;;
2299;SDS011;1158;48.750;9.078;2023-04-15T02:45:12;7.20;;;3.50;;
2299;SDS011;1158;48.750;9.078;2023-04-15T02:47:39;6.63;;;4.20;;
2299;SDS011;1158;48.750;9.078;2023-04-15T02:50:08;5.07;;;3.40;;
2299;SDS011;1158;48.750;9.078;2023-04-15T02:52:38;9.77;;;4.30;;
2299;SDS011;1158;48.750;9.078;2023-04-15T02:55:06;8.60;;;4.17;;
2299;SDS011;1158;48.750;9.078;2023-04-15T02:57:33;5.83;;;3.80;;
2299;SDS011;1158;48.750;9.078;2023-04-15T03:00:03;14.23;;;3.87;;
2299;SDS011;1158;48.750;9.078;2023-04-15T03:02:32;7.13;;;4.30;;
2299;SDS011;1158;48.750;9.078;2023-04-15T03:04:59;9.87;;;4.83;;
2299;SDS011;1158;48.750;9.078;2023-04-15T03:07:26;12.30;;;4.37;;
2299;SDS011;1158;48.750;9.078;2023-04-15T03:09:54;6.53;;;4.03;;
2299;SDS011;1158;48.750;9.078;2023-04-15T03:12:21;7.00;;;3.80;;
2299;SDS011;1158;48.750;9.078;2023-04-15T03:14:47;8.53;;;3.60;;
2299;SDS011;1158;48.750;9.078;2023-04-15T03:17:14;7.27;;;4.10;;
2299;SDS011;1158;48.750;9.078;2023-04-15T03:19:41;9.90;;;4.10;;
2299;SDS011;1158;48.750;9.078;2023-04-15T03:22:09;6.70;;;3.90;;
2299;SDS011;1158;48.750;9.078;2023-04-15T03:24:35;12.80;;;4.80;;
2299;SDS011;1158;48.750;9.078;2023-04-15T03:27:03;9.93;;;3.80;;
2299;SDS011;1158;48.750;9.078;2023-04-15T03:29:32;12.93;;;4.10;;
2299;SDS011;1158;48.750;9.078;2023-04-15T03:31:58;10.50;;;3.73;;
2299;SDS011;1158;48.750;9.078;2023-04-15T03:34:25;10.87;;;4.73;;
2299;SDS011;1158;48.750;9.078;2023-04-15T03:36:52;10.50;;;4.70;;
2299;SDS011;1158;48.750;9.078;2023-04-15T03:39:19;14.93;;;4.13;;
2299;SDS011;1158;48.750;9.078;2023-04-15T03:41:45;7.83;;;4.10;;
2299;SDS011;1158;48.750;9.078;2023-04-15T03:44:14;13.33;;;4.83;;
2299;SDS011;1158;48.750;9.078;2023-04-15T03:46:40;11.37;;;4.73;;
2299;SDS011;1158;48.750;9.078;2023-04-15T03:49:07;13.37;;;5.00;;
2299;SDS011;1158;48.750;9.078;2023-04-15T03:51:34;8.70;;;4.20;;
2299;SDS011;1158;48.750;9.078;2023-04-15T03:54:00;9.13;;;4.60;;
2299;SDS011;1158;48.750;9.078;2023-04-15T03:56:27;7.83;;;4.30;;
2299;SDS011;1158;48.750;9.078;2023-04-15T03:58:54;8.23;;;4.30;;
2299;SDS011;1158;48.750;9.078;2023-04-15T04:01:22;6.83;;;3.90;;
2299;SDS011;1158;48.750;9.078;2023-04-15T04:03:49;11.37;;;4.27;;
2299;SDS011;1158;48.750;9.078;2023-04-15T04:06:16;7.57;;;3.60;;
2299;SDS011;1158;48.750;9.078;2023-04-15T04:08:43;7.90;;;4.00;;
2299;SDS011;1158;48.750;9.078;2023-04-15T04:11:10;6.77;;;3.63;;
2299;SDS011;1158;48.750;9.078;2023-04-15T04:13:36;11.57;;;4.20;;
2299;SDS011;1158;48.750;9.078;2023-04-15T04:16:03;9.10;;;4.40;;
2299;SDS011;1158;48.750;9.078;2023-04-15T04:18:32;6.90;;;4.00;;
2299;SDS011;1158;48.750;9.078;2023-04-15T04:20:59;11.17;;;4.50;;
2299;SDS011;1158;48.750;9.078;2023-04-15T04:23:26;7.53;;;4.13;;
2299;SDS011;1158;48.750;9.078;2023-04-15T04:25:52;6.87;;;3.50;;
2299;SDS011;1158;48.750;9.078;2023-04-15T04:28:19;10.00;;;4.17;;
2299;SDS011;1158;48.750;9.078;2023-04-15T04:30:46;7.43;;;3.77;;
2299;SDS011;1158;48.750;9.078;2023-04-15T04:33:13;7.53;;;4.63;;
2299;SDS011;1158;48.750;9.078;2023-04-15T04:35:41;8.07;;;3.50;;
2299;SDS011;1158;48.750;9.078;2023-04-15T04:38:07;10.43;;;3.73;;
2299;SDS011;1158;48.750;9.078;2023-04-15T04:40:34;8.63;;;4.20;;
2299;SDS011;1158;48.750;9.078;2023-04-15T04:43:01;7.50;;;3.87;;
2299;SDS011;1158;48.750;9.078;2023-04-15T04:45:28;10.17;;;3.93;;
2299;SDS011;1158;48.750;9.078;2023-04-15T04:47:54;8.93;;;4.47;;
2299;SDS011;1158;48.750;9.078;2023-04-15T04:50:21;9.03;;;3.53;;
2299;SDS011;1158;48.750;9.078;2023-04-15T04:52:49;7.83;;;4.63;;
2299;SDS011;1158;48.750;9.078;2023-04-15T04:55:16;10.87;;;4.40;;
2299;SDS011;1158;48.750;9.078;2023-04-15T04:57:42;7.63;;;4.40;;
2299;SDS011;1158;48.750;9.078;2023-04-15T05:00:09;8.70;;;4.27;;
2299;SDS011;1158;48.750;9.078;2023-04-15T05:02:38;8.73;;;4.33;;
2299;SDS011;1158;48.750;9.078;2023-04-15T05:05:06;10.00;;;4.33;;
2299;SDS011;1158;48.750;9.078;2023-04-15T05:07:33;13.67;;;4.70;;
2299;SDS011;1158;48.750;9.078;2023-04-15T05:10:01;6.23;;;4.00;;
2299;SDS011;1158;48.750;9.078;2023-04-15T05:12:28;9.30;;;4.40;;
2299;SDS011;1158;48.750;9.078;2023-04-15T05:14:55;6.33;;;4.20;;
2299;SDS011;1158;48.750;9.078;2023-04-15T05:17:24;12.33;;;4.50;;
2299;SDS011;1158;48.750;9.078;2023-04-15T05:19:50;8.90;;;4.77;;
2299;SDS011;1158;48.750;9.078;2023-04-15T05:22:17;9.27;;;3.83;;
2299;SDS011;1158;48.750;9.078;2023-04-15T05:24:44;10.33;;;4.77;;
2299;SDS011;1158;48.750;9.078;2023-04-15T05:27:12;11.57;;;5.23;;
2299;SDS011;1158;48.750;9.078;2023-04-15T05:29:39;13.10;;;5.50;;
2299;SDS011;1158;48.750;9.078;2023-04-15T05:32:06;6.30;;;4.70;;
2299;SDS011;1158;48.750;9.078;2023-04-15T05:34:33;9.57;;;5.53;;
2299;SDS011;1158;48.750;9.078;2023-04-15T05:37:00;6.53;;;4.13;;
2299;SDS011;1158;48.750;9.078;2023-04-15T05:39:26;9.30;;;4.53;;
2299;SDS011;1158;48.750;9.078;2023-04-15T05:41:53;4.93;;;3.10;;
2299;SDS011;1158;48.750;9.078;2023-04-15T05:44:21;5.60;;;3.30;;
2299;SDS011;1158;48.750;9.078;2023-04-15T05:46:48;7.80;;;3.23;;
2299;SDS011;1158;48.750;9.078;2023-04-15T05:49:14;5.40;;;2.73;;
2299;SDS011;1158;48.750;9.078;2023-04-15T05:51:41;6.17;;;2.90;;
2299;SDS011;1158;48.750;9.078;2023-04-15T05:54:08;4.13;;;2.70;;
2299;SDS011;1158;48.750;9.078;2023-04-15T05:56:34;8.13;;;3.50;;
2299;SDS011;1158;48.750;9.078;2023-04-15T05:59:01;4.87;;;3.17;;
2299;SDS011;1158;48.750;9.078;2023-04-15T06:01:29;5.83;;;2.63;;
2299;SDS011;1158;48.750;9.078;2023-04-15T06:03:56;5.27;;;3.00;;
2299;SDS011;1158;48.750;9.078;2023-04-15T06:06:22;4.73;;;3.30;;
2299;SDS011;1158;48.750;9.078;2023-04-15T06:08:49;6.67;;;3.13;;
2299;SDS011;1158;48.750;9.078;2023-04-15T06:11:16;7.90;;;2.97;;
2299;SDS011;1158;48.750;9.078;2023-04-15T06:13:42;7.53;;;3.13;;
2299;SDS011;1158;48.750;9.078;2023-04-15T06:16:09;6.40;;;2.97;;
2299;SDS011;1158;48.750;9.078;2023-04-15T06:18:37;5.97;;;2.90;;
2299;SDS011;1158;48.750;9.078;2023-04-15T06:21:04;10.03;;;3.00;;
2299;SDS011;1158;48.750;9.078;2023-04-15T06:23:32;4.33;;;3.17;;
2299;SDS011;1158;48.750;9.078;2023-04-15T06:25:59;5.33;;;3.00;;
2299;SDS011;1158;48.750;9.078;2023-04-15T06:28:26;8.97;;;3.97;;
2299;SDS011;1158;48.750;9.078;2023-04-15T06:30:53;4.70;;;3.13;;
2299;SDS011;1158;48.750;9.078;2023-04-15T06:33:20;6.47;;;3.70;;
2299;SDS011;1158;48.750;9.078;2023-04-15T06:35:48;7.07;;;3.23;;
2299;SDS011;1158;48.750;9.078;2023-04-15T06:38:15;7.83;;;3.20;;
2299;SDS011;1158;48.750;9.078;2023-04-15T06:40:42;5.70;;;3.07;;
2299;SDS011;1158;48.750;9.078;2023-04-15T06:43:08;4.47;;;2.73;;
2299;SDS011;1158;48.750;9.078;2023-04-15T06:45:35;5.43;;;2.50;;
2299;SDS011;1158;48.750;9.078;2023-04-15T06:48:02;6.53;;;3.00;;
2299;SDS011;1158;48.750;9.078;2023-04-15T06:50:29;7.30;;;3.30;;
2299;SDS011;1158;48.750;9.078;2023-04-15T06:52:57;7.20;;;3.00;;
2299;SDS011;1158;48.750;9.078;2023-04-15T06:55:24;6.13;;;2.43;;
2299;SDS011;1158;48.750;9.078;2023-04-15T06:57:51;4.40;;;2.60;;
2299;SDS011;1158;48.750;9.078;2023-04-15T07:00:18;6.67;;;3.50;;
2299;SDS011;1158;48.750;9.078;2023-04-15T07:02:45;6.37;;;3.10;;
2299;SDS011;1158;48.750;9.078;2023-04-15T07:05:11;7.90;;;4.10;;
2299;SDS011;1158;48.750;9.078;2023-04-15T07:07:38;5.10;;;2.63;;
2299;SDS011;1158;48.750;9.078;2023-04-15T07:10:07;4.80;;;2.27;;
2299;SDS011;1158;48.750;9.078;2023-04-15T07:12:36;3.43;;;2.33;;
2299;SDS011;1158;48.750;9.078;2023-04-15T07:15:05;7.17;;;3.10;;
2299;SDS011;1158;48.750;9.078;2023-04-15T07:17:32;5.67;;;2.63;;
2299;SDS011;1158;48.750;9.078;2023-04-15T07:19:59;4.83;;;2.60;;
2299;SDS011;1158;48.750;9.078;2023-04-15T07:22:26;6.47;;;2.90;;
2299;SDS011;1158;48.750;9.078;2023-04-15T07:24:52;11.87;;;3.27;;
2299;SDS011;1158;48.750;9.078;2023-04-15T07:27:21;5.00;;;2.20;;
2299;SDS011;1158;48.750;9.078;2023-04-15T07:29:47;4.93;;;2.63;;
2299;SDS011;1158;48.750;9.078;2023-04-15T07:32:16;10.50;;;3.67;;
2299;SDS011;1158;48.750;9.078;2023-04-15T07:34:42;9.67;;;4.50;;
2299;SDS011;1158;48.750;9.078;2023-04-15T07:37:09;7.70;;;3.80;;
2299;SDS011;1158;48.750;9.078;2023-04-15T07:39:36;8.23;;;2.87;;
2299;SDS011;1158;48.750;9.078;2023-04-15T07:42:03;4.30;;;2.37;;
2299;SDS011;1158;48.750;9.078;2023-04-15T07:44:31;5.17;;;2.47;;
2299;SDS011;1158;48.750;9.078;2023-04-15T07:46:58;8.57;;;2.40;;
2299;SDS011;1158;48.750;9.078;2023-04-15T07:49:24;5.67;;;2.33;;
2299;SDS011;1158;48.750;9.078;2023-04-15T07:51:51;5.73;;;2.10;;
2299;SDS011;1158;48.750;9.078;2023-04-15T07:54:18;8.67;;;3.50;;
2299;SDS011;1158;48.750;9.078;2023-04-15T07:56:44;6.23;;;2.27;;
2299;SDS011;1158;48.750;9.078;2023-04-15T07:59:11;5.77;;;1.97;;
2299;SDS011;1158;48.750;9.078;2023-04-15T08:01:43;5.30;;;1.67;;
2299;SDS011;1158;48.750;9.078;2023-04-15T08:04:09;5.77;;;2.40;;
2299;SDS011;1158;48.750;9.078;2023-04-15T08:06:36;6.87;;;2.20;;
2299;SDS011;1158;48.750;9.078;2023-04-15T08:09:03;5.70;;;2.33;;
2299;SDS011;1158;48.750;9.078;2023-04-15T08:11:31;4.73;;;2.00;;
2299;SDS011;1158;48.750;9.078;2023-04-15T08:13:57;8.30;;;2.40;;
2299;SDS011;1158;48.750;9.078;2023-04-15T08:16:25;4.53;;;2.33;;
2299;SDS011;1158;48.750;9.078;2023-04-15T08:18:53;4.00;;;2.13;;
2299;SDS011;1158;48.750;9.078;2023-04-15T08:21:21;6.10;;;2.00;;
2299;SDS011;1158;48.750;9.078;2023-04-15T08:23:50;3.93;;;2.23;;
2299;SDS011;1158;48.750;9.078;2023-04-15T08:26:17;6.07;;;2.70;;
2299;SDS011;1158;48.750;9.078;2023-04-15T08:28:45;7.10;;;2.50;;
2299;SDS011;1158;48.750;9.078;2023-04-15T08:31:12;7.30;;;2.20;;
2299;SDS011;1158;48.750;9.078;2023-04-15T08:33:40;6.30;;;2.13;;
2299;SDS011;1158;48.750;9.078;2023-04-15T08:36:08;4.70;;;2.47;;
2299;SDS011;1158;48.750;9.078;2023-04-15T08:38:35;4.40;;;2.30;;
2299;SDS011;1158;48.750;9.078;2023-04-15T08:41:03;6.90;;;2.30;;
2299;SDS011;1158;48.750;9.078;2023-04-15T08:43:33;4.10;;;2.33;;
2299;SDS011;1158;48.750;9.078;2023-04-15T08:46:00;6.53;;;2.30;;
2299;SDS011;1158;48.750;9.078;2023-04-15T08:48:31;3.67;;;2.20;;
2299;SDS011;1158;48.750;9.078;2023-04-15T08:50:59;6.80;;;2.00;;
2299;SDS011;1158;48.750;9.078;2023-04-15T08:53:29;10.77;;;1.90;;
2299;SDS011;1158;48.750;9.078;2023-04-15T08:56:02;6.00;;;2.00;;
2299;SDS011;1158;48.750;9.078;2023-04-15T08:58:36;4.03;;;2.33;;
2299;SDS011;1158;48.750;9.078;2023-04-15T09:01:03;8.20;;;2.40;;
2299;SDS011;1158;48.750;9.078;2023-04-15T09:03:30;8.07;;;2.73;;
2299;SDS011;1158;48.750;9.078;2023-04-15T09:05:57;5.27;;;2.83;;
2299;SDS011;1158;48.750;9.078;2023-04-15T09:08:26;7.10;;;3.20;;
2299;SDS011;1158;48.750;9.078;2023-04-15T09:11:02;6.17;;;3.00;;
2299;SDS011;1158;48.750;9.078;2023-04-15T09:13:29;7.30;;;2.83;;
2299;SDS011;1158;48.750;9.078;2023-04-15T09:15:56;5.67;;;2.63;;
2299;SDS011;1158;48.750;9.078;2023-04-15T09:18:26;4.53;;;2.67;;
2299;SDS011;1158;48.750;9.078;2023-04-15T09:20:54;6.07;;;3.30;;
2299;SDS011;1158;48.750;9.078;2023-04-15T09:23:21;7.10;;;2.93;;
2299;SDS011;1158;48.750;9.078;2023-04-15T09:25:49;5.20;;;3.00;;
2299;SDS011;1158;48.750;9.078;2023-04-15T09:28:22;4.90;;;2.87;;
2299;SDS011;1158;48.750;9.078;2023-04-15T09:30:51;8.23;;;2.73;;
2299;SDS011;1158;48.750;9.078;2023-04-15T09:33:20;4.30;;;2.60;;
2299;SDS011;1158;48.750;9.078;2023-04-15T09:35:55;3.90;;;2.60;;
2299;SDS011;1158;48.750;9.078;2023-04-15T09:38:23;7.73;;;3.13;;
2299;SDS011;1158;48.750;9.078;2023-04-15T09:40:51;5.37;;;2.80;;
2299;SDS011;1158;48.750;9.078;2023-04-15T09:43:18;6.53;;;2.57;;
2299;SDS011;1158;48.750;9.078;2023-04-15T09:45:48;9.30;;;3.40;;
2299;SDS011;1158;48.750;9.078;2023-04-15T09:48:17;6.27;;;2.80;;
2299;SDS011;1158;48.750;9.078;2023-04-15T09:50:45;5.30;;;2.60;;
2299;SDS011;1158;48.750;9.078;2023-04-15T09:53:16;8.63;;;3.00;;
2299;SDS011;1158;48.750;9.078;2023-04-15T09:55:44;5.50;;;3.33;;
2299;SDS011;1158;48.750;9.078;2023-04-15T09:58:20;6.80;;;3.93;;
2299;SDS011;1158;48.750;9.078;2023-04-15T10:00:48;10.00;;;3.63;;
2299;SDS011;1158;48.750;9.078;2023-04-15T10:03:17;4.20;;;3.03;;
2299;SDS011;1158;48.750;9.078;2023-04-15T10:05:46;5.53;;;3.30;;
2299;SDS011;1158;48.750;9.078;2023-04-15T10:08:14;7.40;;;3.50;;
2299;SDS011;1158;48.750;9.078;2023-04-15T10:10:43;5.50;;;3.60;;
2299;SDS011;1158;48.750;9.078;2023-04-15T10:13:11;6.53;;;3.43;;
2299;SDS011;1158;48.750;9.078;2023-04-15T10:15:40;6.23;;;3.90;;
2299;SDS011;1158;48.750;9.078;2023-04-15T10:18:09;5.93;;;3.57;;
2299;SDS011;1158;48.750;9.078;2023-04-15T10:20:38;10.70;;;4.23;;
2299;SDS011;1158;48.750;9.078;2023-04-15T10:23:05;7.87;;;3.37;;
2299;SDS011;1158;48.750;9.078;2023-04-15T10:25:33;5.47;;;3.30;;
2299;SDS011;1158;48.750;9.078;2023-04-15T10:28:01;5.03;;;2.90;;
2299;SDS011;1158;48.750;9.078;2023-04-15T10:30:29;8.07;;;4.37;;
2299;SDS011;1158;48.750;9.078;2023-04-15T10:32:59;9.93;;;3.80;;
2299;SDS011;1158;48.750;9.078;2023-04-15T10:35:27;7.80;;;4.00;;
2299;SDS011;1158;48.750;9.078;2023-04-15T10:37:54;6.90;;;4.00;;
2299;SDS011;1158;48.750;9.078;2023-04-15T10:40:25;6.67;;;4.10;;
2299;SDS011;1158;48.750;9.078;2023-04-15T10:42:55;5.97;;;4.33;;
2299;SDS011;1158;48.750;9.078;2023-04-15T10:45:24;6.27;;;3.93;;
2299;SDS011;1158;48.750;9.078;2023-04-15T10:47:53;10.30;;;4.57;;
2299;SDS011;1158;48.750;9.078;2023-04-15T10:50:22;5.67;;;3.87;;
2299;SDS011;1158;48.750;9.078;2023-04-15T10:52:54;7.23;;;3.97;;
2299;SDS011;1158;48.750;9.078;2023-04-15T10:55:22;5.90;;;4.47;;
2299;SDS011;1158;48.750;9.078;2023-04-15T10:57:51;9.43;;;4.10;;
2299;SDS011;1158;48.750;9.078;2023-04-15T11:00:21;10.53;;;4.60;;
2299;SDS011;1158;48.750;9.078;2023-04-15T11:02:51;5.37;;;3.80;;
2299;SDS011;1158;48.750;9.078;2023-04-15T11:05:20;8.87;;;5.20;;
2299;SDS011;1158;48.750;9.078;2023-04-15T11:08:11;7.53;;;4.10;;
2299;SDS011;1158;48.750;9.078;2023-04-15T11:10:49;8.27;;;4.20;;
2299;SDS011;1158;48.750;9.078;2023-04-15T11:13:26;6.37;;;3.63;;
2299;SDS011;1158;48.750;9.078;2023-04-15T11:15:56;9.83;;;4.20;;
2299;SDS011;1158;48.750;9.078;2023-04-15T11:18:25;10.03;;;4.30;;
2299;SDS011;1158;48.750;9.078;2023-04-15T11:20:55;6.97;;;4.37;;
2299;SDS011;1158;48.750;9.078;2023-04-15T11:23:28;5.80;;;3.73;;
2299;SDS011;1158;48.750;9.078;2023-04-15T11:25:57;7.67;;;3.90;;
2299;SDS011;1158;48.750;9.078;2023-04-15T11:28:25;5.33;;;4.03;;
2299;SDS011;1158;48.750;9.078;2023-04-15T11:30:53;6.37;;;3.10;;
2299;SDS011;1158;48.750;9.078;2023-04-15T11:33:20;6.47;;;3.93;;
2299;SDS011;1158;48.750;9.078;2023-04-15T11:35:49;5.80;;;3.77;;
2299;SDS011;1158;48.750;9.078;2023-04-15T11:38:18;5.67;;;4.07;;
2299;SDS011;1158;48.750;9.078;2023-04-15T11:40:46;10.37;;;4.47;;
2299;SDS011;1158;48.750;9.078;2023-04-15T11:43:13;6.23;;;4.20;;
2299;SDS011;1158;48.750;9.078;2023-04-15T11:45:49;5.60;;;4.00;;
2299;SDS011;1158;48.750;9.078;2023-04-15T11:48:18;7.17;;;3.80;;
2299;SDS011;1158;48.750;9.078;2023-04-15T11:50:45;8.37;;;3.90;;
2299;SDS011;1158;48.750;9.078;2023-04-15T11:53:17;7.00;;;3.90;;
2299;SDS011;1158;48.750;9.078;2023-04-15T11:55:46;5.13;;;3.27;;
2299;SDS011;1158;48.750;9.078;2023-04-15T11:58:14;9.63;;;4.50;;
2299;SDS011;1158;48.750;9.078;2023-04-15T12:00:45;7.17;;;3.90;;
2299;SDS011;1158;48.750;9.078;2023-04-15T12:03:14;6.53;;;3.07;;
2299;SDS011;1158;48.750;9.078;2023-04-15T12:08:47;9.10;;;4.30;;
2299;SDS011;1158;48.750;9.078;2023-04-15T12:11:29;6.80;;;3.40;;
2299;SDS011;1158;48.750;9.078;2023-04-15T12:14:17;4.27;;;3.13;;
2299;SDS011;1158;48.750;9.078;2023-04-15T12:16:47;6.33;;;3.00;;
2299;SDS011;1158;48.750;9.078;2023-04-15T12:19:15;6.13;;;3.63;;
2299;SDS011;1158;48.750;9.078;2023-04-15T12:21:44;7.97;;;4.10;;
2299;SDS011;1158;48.750;9.078;2023-04-15T12:24:12;6.43;;;3.90;;
2299;SDS011;1158;48.750;9.078;2023-04-15T12:26:44;9.53;;;4.23;;
2299;SDS011;1158;48.750;9.078;2023-04-15T12:29:12;5.80;;;3.40;;
2299;SDS011;1158;48.750;9.078;2023-04-15T12:31:47;7.50;;;4.30;;
2299;SDS011;1158;48.750;9.078;2023-04-15T12:34:15;7.50;;;4.00;;
2299;SDS011;1158;48.750;9.078;2023-04-15T12:36:43;9.30;;;4.50;;
2299;SDS011;1158;48.750;9.078;2023-04-15T12:39:10;6.40;;;4.50;;
2299;SDS011;1158;48.750;9.078;2023-04-15T12:41:37;6.30;;;3.70;;
2299;SDS011;1158;48.750;9.078;2023-04-15T12:44:06;6.27;;;4.43;;
2299;SDS011;1158;48.750;9.078;2023-04-15T12:46:33;7.27;;;3.70;;
2299;SDS011;1158;48.750;9.078;2023-04-15T12:49:00;4.93;;;3.97;;
2299;SDS011;1158;48.750;9.078;2023-04-15T12:51:27;6.60;;;3.60;;
2299;SDS011;1158;48.750;9.078;2023-04-15T12:53:53;6.93;;;3.97;;
2299;SDS011;1158;48.750;9.078;2023-04-15T12:56:20;4.63;;;4.00;;
2299;SDS011;1158;48.750;9.078;2023-04-15T12:58:47;6.60;;;3.60;;
2299;SDS011;1158;48.750;9.078;2023-04-15T13:01:16;7.87;;;4.10;;
2299;SDS011;1158;48.750;9.078;2023-04-15T13:03:43;5.37;;;3.83;;
2299;SDS011;1158;48.750;9.078;2023-04-15T13:06:10;7.60;;;4.10;;
2299;SDS011;1158;48.750;9.078;2023-04-15T13:08:37;5.60;;;3.67;;
2299;SDS011;1158;48.750;9.078;2023-04-15T13:11:04;7.30;;;3.40;;
2299;SDS011;1158;48.750;9.078;2023-04-15T13:13:30;6.40;;;3.30;;
2299;SDS011;1158;48.750;9.078;2023-04-15T13:15:57;4.00;;;3.60;;
2299;SDS011;1158;48.750;9.078;2023-04-15T13:18:26;4.80;;;3.60;;
2299;SDS011;1158;48.750;9.078;2023-04-15T13:20:55;7.40;;;3.63;;
2299;SDS011;1158;48.750;9.078;2023-04-15T13:23:22;5.30;;;3.70;;
2299;SDS011;1158;48.750;9.078;2023-04-15T13:25:48;7.80;;;3.50;;
2299;SDS011;1158;48.750;9.078;2023-04-15T13:28:15;9.37;;;3.77;;
2299;SDS011;1158;48.750;9.078;2023-04-15T13:30:42;5.17;;;3.47;;
2299;SDS011;1158;48.750;9.078;2023-04-15T13:33:10;5.33;;;3.70;;
2299;SDS011;1158;48.750;9.078;2023-04-15T13:35:38;5.07;;;3.50;;
2299;SDS011;1158;48.750;9.078;2023-04-15T13:38:05;4.90;;;2.80;;
2299;SDS011;1158;48.750;9.078;2023-04-15T13:40:32;9.63;;;3.10;;
2299;SDS011;1158;48.750;9.078;2023-04-15T13:42:59;5.20;;;3.37;;
2299;SDS011;1158;48.750;9.078;2023-04-15T13:45:27;6.60;;;2.80;;
2299;SDS011;1158;48.750;9.078;2023-04-15T13:47:54;5.30;;;3.03;;
2299;SDS011;1158;48.750;9.078;2023-04-15T13:50:21;3.73;;;2.40;;
2299;SDS011;1158;48.750;9.078;2023-04-15T13:52:49;5.23;;;2.83;;
2299;SDS011;1158;48.750;9.078;2023-04-15T13:55:16;4.17;;;2.60;;
2299;SDS011;1158;48.750;9.078;2023-04-15T13:57:43;4.80;;;2.57;;
2299;SDS011;1158;48.750;9.078;2023-04-15T14:00:10;5.80;;;2.70;;
2299;SDS011;1158;48.750;9.078;2023-04-15T14:02:38;4.00;;;2.70;;
2299;SDS011;1158;48.750;9.078;2023-04-15T14:05:05;5.70;;;2.63;;
2299;SDS011;1158;48.750;9.078;2023-04-15T14:07:32;3.83;;;2.47;;
2299;SDS011;1158;48.750;9.078;2023-04-15T14:10:00;4.97;;;2.93;;
2299;SDS011;1158;48.750;9.078;2023-04-15T14:12:27;4.40;;;2.77;;
2299;SDS011;1158;48.750;9.078;2023-04-15T14:14:54;5.90;;;2.27;;
2299;SDS011;1158;48.750;9.078;2023-04-15T14:17:21;3.73;;;2.00;;
2299;SDS011;1158;48.750;9.078;2023-04-15T14:19:48;8.03;;;1.97;;
2299;SDS011;1158;48.750;9.078;2023-04-15T14:22:14;3.33;;;1.70;;
2299;SDS011;1158;48.750;9.078;2023-04-15T14:24:42;3.90;;;1.70;;
2299;SDS011;1158;48.750;9.078;2023-04-15T14:27:11;3.23;;;2.00;;
2299;SDS011;1158;48.750;9.078;2023-04-15T14:29:37;2.33;;;1.70;;
2299;SDS011;1158;48.750;9.078;2023-04-15T14:32:04;2.83;;;2.00;;
2299;SDS011;1158;48.750;9.078;2023-04-15T14:34:31;5.13;;;2.40;;
2299;SDS011;1158;48.750;9.078;2023-04-15T14:36:58;3.60;;;2.40;;
2299;SDS011;1158;48.750;9.078;2023-04-15T14:39:25;3.47;;;2.30;;
2299;SDS011;1158;48.750;9.078;2023-04-15T14:41:52;7.80;;;2.50;;
2299;SDS011;1158;48.750;9.078;2023-04-15T14:44:21;5.27;;;3.47;;
2299;SDS011;1158;48.750;9.078;2023-04-15T14:46:48;8.53;;;3.30;;
2299;SDS011;1158;48.750;9.078;2023-04-15T14:49:15;5.20;;;2.87;;
2299;SDS011;1158;48.750;9.078;2023-04-15T14:51:42;4.40;;;2.90;;
2299;SDS011;1158;48.750;9.078;2023-04-15T14:54:10;3.47;;;2.57;;
2299;SDS011;1158;48.750;9.078;2023-04-15T14:56:37;5.63;;;2.70;;
2299;SDS011;1158;48.750;9.078;2023-04-15T14:59:03;4.80;;;3.00;;
2299;SDS011;1158;48.750;9.078;2023-04-15T15:01:31;4.10;;;2.93;;
2299;SDS011;1158;48.750;9.078;2023-04-15T15:03:58;5.10;;;2.23;;
2299;SDS011;1158;48.750;9.078;2023-04-15T15:06:25;5.40;;;3.00;;
2299;SDS011;1158;48.750;9.078;2023-04-15T15:08:52;4.40;;;3.10;;
2299;SDS011;1158;48.750;9.078;2023-04-15T15:11:19;4.80;;;3.20;;
2299;SDS011;1158;48.750;9.078;2023-04-15T15:13:46;6.13;;;3.70;;
2299;SDS011;1158;48.750;9.078;2023-04-15T15:16:20;6.53;;;3.17;;
2299;SDS011;1158;48.750;9.078;2023-04-15T15:18:48;6.50;;;3.73;;
2299;SDS011;1158;48.750;9.078;2023-04-15T15:21:16;5.40;;;3.27;;